Time;durP1;ratioP1;P1;durP2;ratioP2;P2;SDS_P1;SDS_P2;PMS_P1;PMS_P2;Temp;Humidity;BMP_temperature;BMP_pressure;BME280_temperature;BME280_humidity;BME280_pressure;Samples;Min_cycle;Max_cycle;Signal;HPM_P1;HPM_P2
2021/09/28 00:01:32;;;;;;;23.17;15.57;;;;;;;12.53;71.76;98787.88;4950801;29;20035;-79
2021/09/28 00:03:57;;;;;;;27.38;16.23;;;;;;;12.53;71.94;98790.63;4952366;29;20023;-80
2021/09/28 00:06:23;;;;;;;23.85;15.77;;;;;;;12.49;71.60;98787.69;4952587;29;20028;-80
2021/09/28 00:08:48;;;;;;;24.45;14.85;;;;;;;12.44;72.03;98790.50;4950647;29;20117;-80
2021/09/28 00:11:14;;;;;;;26.20;15.98;;;;;;;12.38;71.93;98789.78;4952405;29;20109;-80
2021/09/28 00:13:40;;;;;;;25.17;15.98;;;;;;;12.34;72.18;98794.25;4952491;29;20042;-80
2021/09/28 00:16:06;;;;;;;24.60;14.55;;;;;;;12.30;72.28;98793.22;4951310;28;20126;-80
2021/09/28 00:18:31;;;;;;;24.92;14.85;;;;;;;12.25;72.29;98798.78;4952147;29;20383;-79
2021/09/28 00:20:57;;;;;;;22.92;13.80;;;;;;;12.17;72.09;98801.09;4935469;29;20450;-80
2021/09/28 00:23:23;;;;;;;23.08;14.07;;;;;;;12.12;72.49;98798.41;4951824;29;20499;-80
2021/09/28 00:25:49;;;;;;;22.63;13.60;;;;;;;12.10;72.32;98805.34;4951850;29;20054;-80
2021/09/28 00:28:16;;;;;;;24.25;14.85;;;;;;;12.08;72.85;98800.13;4952415;29;20062;-80
2021/09/28 00:30:43;;;;;;;20.67;13.38;;;;;;;12.08;72.55;98808.38;4934166;29;20483;-80
2021/09/28 00:33:09;;;;;;;21.77;14.38;;;;;;;12.11;72.67;98805.03;4951842;29;20062;-80
2021/09/28 00:35:34;;;;;;;21.13;13.45;;;;;;;12.12;73.04;98805.88;4951378;29;20066;-79
2021/09/28 00:38:01;;;;;;;21.42;13.50;;;;;;;12.11;72.91;98809.72;4952233;29;20078;-80
2021/09/28 00:40:26;;;;;;;20.90;12.82;;;;;;;12.12;72.60;98803.13;4951834;29;20035;-80
2021/09/28 00:42:52;;;;;;;24.05;13.85;;;;;;;12.11;72.54;98801.47;4950699;29;20084;-80
2021/09/28 00:45:17;;;;;;;24.38;13.40;;;;;;;12.11;72.84;98805.03;4951300;29;20038;-80
2021/09/28 00:47:43;;;;;;;23.52;13.77;;;;;;;12.13;72.78;98802.00;4934563;29;20027;-80
2021/09/28 00:50:09;;;;;;;23.95;14.25;;;;;;;12.14;73.15;98796.19;4951935;29;20419;-80
2021/09/28 00:52:34;;;;;;;20.45;13.45;;;;;;;12.17;72.82;98803.84;4951623;29;20034;-79
2021/09/28 00:55:00;;;;;;;21.70;13.57;;;;;;;12.21;73.15;98798.59;4950983;29;20693;-80
2021/09/28 00:57:25;;;;;;;22.35;14.05;;;;;;;12.21;73.20;98799.38;4951783;29;20526;-80
2021/09/28 00:59:53;;;;;;;22.02;13.10;;;;;;;12.26;72.64;98800.44;4951354;29;20024;-80
2021/09/28 01:02:20;;;;;;;21.58;13.75;;;;;;;12.25;72.80;98796.03;4951747;29;20019;-80
2021/09/28 01:04:46;;;;;;;20.02;13.13;;;;;;;12.26;73.05;98797.66;4948757;29;20468;-79
2021/09/28 01:07:11;;;;;;;22.50;13.85;;;;;;;12.31;72.83;98797.59;4951340;29;20531;-79
2021/09/28 01:09:38;;;;;;;23.25;14.65;;;;;;;12.29;72.56;98799.81;4950681;29;20035;-79
2021/09/28 01:12:06;;;;;;;21.00;13.02;;;;;;;12.30;73.26;98801.47;4951254;29;20031;-79
2021/09/28 01:14:31;;;;;;;21.25;12.95;;;;;;;12.28;72.77;98801.75;4950994;29;20023;-79
2021/09/28 01:16:57;;;;;;;20.35;13.38;;;;;;;12.25;72.67;98805.09;4950876;29;20070;-79
2021/09/28 01:19:22;;;;;;;22.27;13.85;;;;;;;12.22;72.85;98800.22;4934106;29;20023;-79
2021/09/28 01:21:48;;;;;;;21.30;13.70;;;;;;;12.21;72.99;98799.38;4950599;29;20520;-79
2021/09/28 01:24:14;;;;;;;20.38;13.77;;;;;;;12.20;72.49;98797.75;4950387;29;20054;-79
2021/09/28 01:26:41;;;;;;;22.10;13.05;;;;;;;12.20;73.00;98799.69;4952006;28;20089;-78
2021/09/28 01:29:09;;;;;;;23.98;13.43;;;;;;;12.20;73.07;98797.75;4955240;29;20024;-79
2021/09/28 01:31:38;;;;;;;20.70;13.30;;;;;;;12.19;72.67;98792.56;4955241;29;20070;-80
2021/09/28 01:34:03;;;;;;;23.20;14.18;;;;;;;12.20;72.96;98803.25;4955067;29;20031;-81
2021/09/28 01:36:29;;;;;;;22.92;13.85;;;;;;;12.20;72.92;98795.00;4954569;29;20089;-80
2021/09/28 01:38:55;;;;;;;24.10;14.95;;;;;;;12.19;72.45;98798.06;4955102;29;20390;-78
2021/09/28 01:41:20;;;;;;;23.52;13.48;;;;;;;12.20;72.55;98795.00;4954665;29;20113;-78
2021/09/28 01:43:46;;;;;;;20.17;12.05;;;;;;;12.23;72.92;98801.03;4954299;29;20443;-78
2021/09/28 01:46:11;;;;;;;22.58;13.20;;;;;;;12.21;72.79;98804.88;4954176;29;20120;-79
2021/09/28 01:48:44;;;;;;;23.35;12.55;;;;;;;12.22;72.83;98800.22;4954378;29;20031;-79
2021/09/28 01:51:10;;;;;;;20.33;12.27;;;;;;;12.21;72.49;98804.88;4953630;29;20042;-79
2021/09/28 01:53:35;;;;;;;20.23;12.27;;;;;;;12.21;72.96;98804.88;4936847;29;20023;-78
2021/09/28 01:56:01;;;;;;;18.33;11.88;;;;;;;12.19;72.74;98807.13;4952547;29;20039;-79
2021/09/28 01:58:26;;;;;;;21.70;12.90;;;;;;;12.20;72.46;98799.69;4953497;29;20019;-79
2021/09/28 02:00:52;;;;;;;21.42;11.98;;;;;;;12.20;72.90;98802.44;4951823;29;20034;-79
2021/09/28 02:03:18;;;;;;;19.95;11.32;;;;;;;12.17;72.90;98803.84;4953825;29;20491;-80
2021/09/28 02:05:44;;;;;;;21.50;11.55;;;;;;;12.15;72.36;98802.53;4935717;29;20125;-79
2021/09/28 02:08:10;;;;;;;21.23;12.32;;;;;;;12.12;72.88;98801.16;4953647;29;20499;-79
2021/09/28 02:10:35;;;;;;;23.73;13.20;;;;;;;12.11;72.31;98809.72;4953548;29;20031;-80
2021/09/28 02:13:02;;;;;;;21.75;12.45;;;;;;;12.10;72.80;98808.91;4936072;29;20043;-79
2021/09/28 02:15:27;;;;;;;19.80;12.40;;;;;;;12.08;72.49;98805.63;4952599;29;20035;-80
2021/09/28 02:17:53;;;;;;;19.90;12.20;;;;;;;12.05;72.46;98812.53;4954472;29;20024;-79
2021/09/28 02:20:18;;;;;;;21.80;12.68;;;;;;;12.07;72.76;98812.25;4954583;29;20451;-79
2021/09/28 02:22:44;;;;;;;21.77;12.25;;;;;;;12.06;72.93;98800.44;4954265;29;20483;-79
2021/09/28 02:25:13;;;;;;;23.67;13.40;;;;;;;12.08;73.14;98808.38;4952391;29;20527;-79
2021/09/28 02:27:39;;;;;;;21.80;11.55;;;;;;;12.06;72.51;98799.59;4954210;29;20030;-79
2021/09/28 02:30:06;;;;;;;19.95;11.05;;;;;;;11.98;72.68;98798.31;4954360;29;20479;-79
2021/09/28 02:32:31;;;;;;;17.60;11.18;;;;;;;11.92;72.58;98805.00;4954402;29;20034;-79
2021/09/28 02:34:57;;;;;;;19.67;10.60;;;;;;;11.90;72.69;98805.31;4954726;29;20035;-80
2021/09/28 02:37:22;;;;;;;20.20;11.73;;;;;;;11.94;73.12;98805.53;4954322;28;20448;-80
2021/09/28 02:39:48;;;;;;;20.35;11.52;;;;;;;11.96;73.38;98805.25;4953914;29;20744;-79
2021/09/28 02:42:13;;;;;;;18.10;11.15;;;;;;;12.00;73.29;98811.81;4954268;29;20464;-79
2021/09/28 02:44:39;;;;;;;16.52;9.85;;;;;;;11.97;72.77;98810.44;4954413;29;20031;-80
2021/09/28 02:47:05;;;;;;;18.98;10.50;;;;;;;11.97;73.01;98804.94;4954194;29;20050;-79
2021/09/28 02:49:31;;;;;;;18.10;10.43;;;;;;;11.93;72.71;98808.59;4954322;29;20027;-79
2021/09/28 02:51:56;;;;;;;17.40;9.75;;;;;;;11.88;73.10;98803.97;4954506;29;20035;-79
2021/09/28 02:54:22;;;;;;;15.60;9.15;;;;;;;11.89;73.27;98803.69;4937525;29;20042;-79
2021/09/28 02:56:48;;;;;;;15.95;10.27;;;;;;;11.89;72.91;98800.09;4951964;29;20035;-80
2021/09/28 02:59:13;;;;;;;14.15;9.07;;;;;;;11.86;73.11;98807.00;4954362;29;20051;-80
2021/09/28 03:01:39;;;;;;;14.00;8.48;;;;;;;11.81;72.71;98796.09;4953057;29;20023;-79
2021/09/28 03:04:05;;;;;;;17.63;10.25;;;;;;;11.77;72.90;98804.13;4936692;29;20023;-80
2021/09/28 03:06:31;;;;;;;12.32;8.38;;;;;;;11.78;72.69;98807.66;4953666;29;20031;-79
2021/09/28 03:08:56;;;;;;;14.68;8.88;;;;;;;11.81;73.49;98804.34;4953918;29;20400;-79
2021/09/28 03:11:24;;;;;;;16.38;9.35;;;;;;;11.81;73.26;98812.59;4953923;29;20031;-79
2021/09/28 03:13:50;;;;;;;13.57;8.57;;;;;;;11.80;72.63;98812.88;4952145;29;20122;-80
2021/09/28 03:16:15;;;;;;;15.05;8.40;;;;;;;11.69;72.55;98807.53;4954362;29;20123;-79
2021/09/28 03:18:40;;;;;;;14.85;8.32;;;;;;;11.56;72.68;98803.56;4954847;29;20063;-80
2021/09/28 03:21:06;;;;;;;15.32;8.20;;;;;;;11.44;73.02;98805.91;4937582;29;20039;-79
2021/09/28 03:23:31;;;;;;;13.65;7.88;;;;;;;11.32;73.24;98796.16;4954614;29;20086;-79
2021/09/28 03:25:57;;;;;;;15.00;8.02;;;;;;;11.24;73.90;98804.22;4954604;29;20035;-80
2021/09/28 03:28:22;;;;;;;13.30;8.05;;;;;;;11.21;73.44;98805.63;4954760;29;20019;-79
2021/09/28 03:30:48;;;;;;;16.20;9.02;;;;;;;11.19;73.61;98802.38;4937030;29;20027;-79
2021/09/28 03:33:13;;;;;;;15.38;9.77;;;;;;;11.15;74.41;98806.81;4954682;29;20031;-79
2021/09/28 03:35:39;;;;;;;14.98;9.30;;;;;;;11.13;73.81;98800.78;4953508;29;20031;-80
2021/09/28 03:38:04;;;;;;;15.82;8.77;;;;;;;11.12;73.56;98808.19;4954460;29;20106;-79
2021/09/28 03:40:30;;;;;;;19.17;10.10;;;;;;;11.16;73.80;98809.25;4954563;29;20039;-80
2021/09/28 03:42:57;;;;;;;18.00;10.50;;;;;;;11.16;74.06;98805.69;4954144;29;20106;-78
2021/09/28 03:45:23;;;;;;;18.20;9.95;;;;;;;11.18;74.48;98803.47;4937230;29;20023;-79
2021/09/28 03:47:49;;;;;;;20.45;11.20;;;;;;;11.19;74.54;98812.53;4954833;29;20058;-79
2021/09/28 03:50:15;;;;;;;20.52;10.52;;;;;;;11.24;74.62;98813.28;4953305;28;20023;-78
2021/09/28 03:52:41;;;;;;;18.20;10.70;;;;;;;11.32;74.53;98814.56;4954556;29;20043;-79
2021/09/28 03:55:06;;;;;;;19.50;10.73;;;;;;;11.40;74.77;98821.34;4936817;29;20054;-79
2021/09/28 03:57:32;;;;;;;17.92;10.52;;;;;;;11.50;74.33;98828.63;4954303;29;20082;-79
2021/09/28 03:59:58;;;;;;;16.95;9.98;;;;;;;11.55;74.48;98829.41;4954447;29;20379;-79
2021/09/28 04:02:23;;;;;;;20.38;10.18;;;;;;;11.58;74.35;98822.50;4952817;29;20031;-78
2021/09/28 04:04:49;;;;;;;18.05;10.27;;;;;;;11.64;74.25;98831.47;4954164;29;20027;-79
2021/09/28 04:07:14;;;;;;;16.65;10.15;;;;;;;11.67;74.78;98828.97;4954067;29;20082;-79
2021/09/28 04:09:40;;;;;;;18.55;9.32;;;;;;;11.68;74.42;98838.03;4953750;29;20476;-78
2021/09/28 04:12:07;;;;;;;17.20;9.77;;;;;;;11.67;74.49;98839.13;4949474;29;20110;-79
2021/09/28 04:14:33;;;;;;;19.63;9.55;;;;;;;11.66;74.13;98841.06;4952653;29;20042;-79
2021/09/28 04:16:58;;;;;;;18.92;10.23;;;;;;;11.69;74.69;98839.66;4953060;29;20031;-78
2021/09/28 04:19:24;;;;;;;20.65;10.88;;;;;;;11.71;74.68;98835.53;4953756;29;20034;-79
2021/09/28 04:21:49;;;;;;;17.33;10.93;;;;;;;11.70;74.45;98839.38;4953983;29;20035;-80
2021/09/28 04:24:15;;;;;;;18.20;10.55;;;;;;;11.62;74.08;98827.09;4953691;29;20687;-80
2021/09/28 04:26:41;;;;;;;17.42;10.75;;;;;;;11.51;74.05;98831.09;4953913;29;20035;-79
2021/09/28 04:29:07;;;;;;;20.60;11.00;;;;;;;11.44;74.01;98831.44;4953812;29;20059;-79
2021/09/28 04:31:32;;;;;;;20.17;11.20;;;;;;;11.38;74.22;98831.81;4952926;29;20062;-79
2021/09/28 04:33:58;;;;;;;19.55;11.18;;;;;;;11.29;73.92;98828.88;4953478;29;20596;-79
2021/09/28 04:36:23;;;;;;;19.48;12.00;;;;;;;11.22;74.26;98837.44;4953673;29;20027;-80
2021/09/28 04:38:50;;;;;;;17.15;11.18;;;;;;;11.21;74.62;98837.75;4946624;29;20130;-78
2021/09/28 04:41:16;;;;;;;21.75;12.10;;;;;;;11.25;74.50;98842.38;4951913;29;20590;-80
2021/09/28 04:43:41;;;;;;;17.70;10.43;;;;;;;11.29;74.57;98850.84;4952203;29;20031;-82
2021/09/28 04:46:07;;;;;;;20.45;10.82;;;;;;;11.28;73.91;98841.78;4949253;29;20103;-80
2021/09/28 04:48:32;;;;;;;19.55;10.73;;;;;;;11.25;74.54;98841.56;4931010;29;20038;-81
2021/09/28 04:50:58;;;;;;;17.95;10.70;;;;;;;11.22;74.16;98845.69;4953333;29;20038;-82
2021/09/28 04:53:24;;;;;;;19.00;10.75;;;;;;;11.20;74.20;98852.59;4953135;29;20027;-82
2021/09/28 04:55:54;;;;;;;19.38;11.40;;;;;;;11.23;74.06;98852.81;4952365;29;20050;-82
2021/09/28 04:58:22;;;;;;;19.10;11.30;;;;;;;11.28;74.56;98852.75;4952779;29;20039;-81
2021/09/28 05:00:48;;;;;;;19.48;11.98;;;;;;;11.35;74.36;98859.84;4952977;28;20030;-81
2021/09/28 05:03:13;;;;;;;19.30;11.60;;;;;;;11.43;74.80;98868.25;4951350;28;20023;-82
2021/09/28 05:05:38;;;;;;;19.25;11.35;;;;;;;11.52;75.02;98867.63;4943404;29;20039;-81
2021/09/28 05:08:04;;;;;;;20.60;10.30;;;;;;;11.58;74.73;98872.78;4948532;29;20059;-81
2021/09/28 05:10:30;;;;;;;20.63;11.20;;;;;;;11.57;74.26;98867.56;4951975;29;20494;-82
2021/09/28 05:12:55;;;;;;;18.88;10.35;;;;;;;11.56;74.61;98869.50;4953280;29;20502;-82
2021/09/28 05:15:21;;;;;;;18.08;11.10;;;;;;;11.60;74.49;98867.81;4949852;29;20781;-80
2021/09/28 05:17:46;;;;;;;18.02;10.25;;;;;;;11.67;74.65;98874.84;4951338;29;20031;-80
2021/09/28 05:20:12;;;;;;;15.88;9.98;;;;;;;11.69;74.08;98878.97;4950870;29;20027;-80
2021/09/28 05:22:37;;;;;;;20.75;13.70;;;;;;;11.72;74.69;98877.53;4952815;29;20027;-80
2021/09/28 05:25:03;;;;;;;18.85;10.95;;;;;;;11.81;74.28;98880.47;4951027;29;20035;-81
2021/09/28 05:27:28;;;;;;;17.15;11.57;;;;;;;11.88;74.09;98884.50;4951249;29;20059;-81
2021/09/28 05:29:54;;;;;;;20.40;11.18;;;;;;;11.92;74.24;98884.72;4933152;29;20506;-81
2021/09/28 05:32:19;;;;;;;19.35;10.50;;;;;;;11.94;74.34;98879.75;4951241;29;20024;-81
2021/09/28 05:34:44;;;;;;;17.30;10.68;;;;;;;11.96;74.16;98890.44;4951333;29;20030;-80
2021/09/28 05:37:10;;;;;;;18.85;10.32;;;;;;;12.01;73.53;98884.91;4933634;29;20114;-80
2021/09/28 05:39:35;;;;;;;19.40;9.98;;;;;;;11.99;73.73;98889.88;4951464;29;20023;-80
2021/09/28 05:42:01;;;;;;;14.02;8.52;;;;;;;11.95;73.45;98888.81;4951498;29;20035;-79
2021/09/28 05:44:26;;;;;;;15.55;8.85;;;;;;;11.89;73.38;98891.63;4951486;29;20027;-79
2021/09/28 05:46:52;;;;;;;15.18;8.63;;;;;;;11.84;73.30;98888.09;4950877;29;20031;-79
2021/09/28 05:49:17;;;;;;;14.63;8.95;;;;;;;11.80;73.91;98898.06;4951603;29;20043;-78
2021/09/28 05:51:52;;;;;;;17.48;9.32;;;;;;;11.83;73.93;98895.53;4948719;29;20063;-79
2021/09/28 05:54:19;;;;;;;14.40;8.95;;;;;;;11.90;73.86;98898.75;4951204;29;20039;-79
2021/09/28 05:56:50;;;;;;;18.42;10.18;;;;;;;11.92;73.48;98901.19;4950503;29;20391;-79
2021/09/28 05:59:16;;;;;;;18.63;10.63;;;;;;;11.97;73.85;98909.38;4950870;29;20031;-78
2021/09/28 06:01:42;;;;;;;18.88;11.05;;;;;;;11.98;73.96;98902.78;4950515;29;20039;-78
2021/09/28 06:04:08;;;;;;;15.23;10.07;;;;;;;12.01;73.62;98915.16;4933855;29;20023;-78
2021/09/28 06:06:34;;;;;;;18.15;10.63;;;;;;;12.03;74.19;98912.91;4950519;29;20046;-80
2021/09/28 06:08:59;;;;;;;15.45;10.07;;;;;;;12.09;73.97;98914.47;4933736;29;20054;-79
2021/09/28 06:11:25;;;;;;;14.95;10.02;;;;;;;12.07;73.56;98913.97;4950918;29;20030;-79
2021/09/28 06:13:51;;;;;;;14.63;9.30;;;;;;;12.01;73.51;98910.47;4935430;29;20027;-77
2021/09/28 06:16:17;;;;;;;16.48;9.57;;;;;;;11.92;73.55;98920.44;4953844;29;20586;-79
2021/09/28 06:18:43;;;;;;;15.98;9.50;;;;;;;11.88;73.51;98930.38;4937269;29;20071;-79
2021/09/28 06:21:08;;;;;;;15.90;9.88;;;;;;;11.90;73.79;98930.91;4954858;29;20050;-78
2021/09/28 06:23:34;;;;;;;16.27;10.18;;;;;;;11.99;73.98;98928.34;4954541;29;20030;-77
2021/09/28 06:25:59;;;;;;;14.27;9.00;;;;;;;12.11;74.37;98934.25;4936478;29;20786;-79
2021/09/28 06:28:25;;;;;;;17.38;9.50;;;;;;;12.11;74.11;98939.75;4951799;29;20106;-79
2021/09/28 06:30:50;;;;;;;15.40;9.60;;;;;;;12.16;74.13;98942.44;4953264;29;20033;-79
2021/09/28 06:33:15;;;;;;;16.83;10.40;;;;;;;12.19;73.71;98936.34;4954853;29;20456;-78
2021/09/28 06:35:41;;;;;;;17.35;10.23;;;;;;;12.26;73.71;98940.69;4953516;29;20373;-79
2021/09/28 06:38:07;;;;;;;21.52;10.80;;;;;;;12.32;74.06;98936.75;4951179;29;21097;-79
2021/09/28 06:40:34;;;;;;;17.10;10.80;;;;;;;12.34;73.47;98935.31;4955253;29;20028;-78
2021/09/28 06:42:59;;;;;;;17.05;10.70;;;;;;;12.31;73.79;98933.16;4955793;29;20031;-79
2021/09/28 06:45:24;;;;;;;19.25;11.23;;;;;;;12.30;73.76;98941.72;4944055;29;20039;-77
2021/09/28 06:47:50;;;;;;;19.67;11.35;;;;;;;12.30;73.85;98936.22;4952804;29;20031;-79
2021/09/28 06:50:16;;;;;;;17.35;10.68;;;;;;;12.32;73.68;98939.50;4954257;29;20031;-77
2021/09/28 06:52:43;;;;;;;21.60;11.38;;;;;;;12.35;73.85;98942.47;4954400;29;20031;-76
2021/09/28 06:55:10;;;;;;;20.15;12.68;;;;;;;12.38;73.76;98937.47;4952841;29;20027;-77
2021/09/28 06:57:35;;;;;;;24.10;14.18;;;;;;;12.45;74.45;98937.94;4953822;29;20122;-78
2021/09/28 07:00:01;;;;;;;22.52;13.68;;;;;;;12.50;74.15;98935.91;4953548;29;20482;-78
2021/09/28 07:02:27;;;;;;;25.67;13.90;;;;;;;12.59;74.38;98949.00;4953763;29;20031;-78
2021/09/28 07:04:53;;;;;;;24.17;13.95;;;;;;;12.65;74.48;98950.56;4953833;29;20048;-79
2021/09/28 07:07:18;;;;;;;21.55;13.77;;;;;;;12.74;74.21;98958.97;4953769;29;20043;-77
2021/09/28 07:09:44;;;;;;;22.95;13.70;;;;;;;12.78;74.13;98954.50;4951342;29;20429;-76
2021/09/28 07:12:09;;;;;;;21.52;12.07;;;;;;;12.86;74.29;98948.34;4937026;29;20027;-78
2021/09/28 07:14:35;;;;;;;21.33;12.07;;;;;;;12.91;74.04;98948.25;4954396;29;20034;-78
2021/09/28 07:17:00;;;;;;;17.17;10.35;;;;;;;12.95;73.94;98943.78;4953109;29;20479;-75
2021/09/28 07:19:27;;;;;;;14.93;10.65;;;;;;;12.96;73.93;98950.09;4953607;29;20095;-78
2021/09/28 07:21:53;;;;;;;15.88;10.73;;;;;;;13.03;73.96;98947.78;4955327;29;20394;-77
2021/09/28 07:24:19;;;;;;;17.13;10.55;;;;;;;13.05;74.08;98956.56;4954330;28;20023;-79
2021/09/28 07:26:44;;;;;;;17.92;9.95;;;;;;;13.05;73.97;98952.97;4957850;29;20110;-76
2021/09/28 07:29:10;;;;;;;18.33;10.35;;;;;;;13.05;74.08;98948.31;4959167;29;20404;-75
2021/09/28 07:31:36;;;;;;;15.88;10.02;;;;;;;13.07;74.46;98959.84;4956053;29;20030;-76
2021/09/28 07:34:02;;;;;;;14.70;9.85;;;;;;;13.10;73.95;98950.97;4953424;29;20027;-77
2021/09/28 07:36:27;;;;;;;16.38;10.02;;;;;;;13.21;74.20;98962.63;4953731;29;20039;-78
2021/09/28 07:38:53;;;;;;;14.82;9.63;;;;;;;13.35;74.33;98964.63;4952940;29;20031;-77
2021/09/28 07:41:19;;;;;;;15.15;9.25;;;;;;;13.43;74.28;98963.97;4953110;29;20046;-76
2021/09/28 07:43:46;;;;;;;14.15;9.73;;;;;;;13.50;74.01;98963.56;4953724;29;20455;-76
2021/09/28 07:46:11;;;;;;;16.50;9.95;;;;;;;13.54;73.59;98965.38;4953957;29;20031;-76
2021/09/28 07:48:37;;;;;;;16.67;11.13;;;;;;;13.59;73.45;98972.75;4954269;29;20746;-75
2021/09/28 07:51:03;;;;;;;14.75;10.13;;;;;;;13.67;73.34;98971.22;4953899;29;20480;-77
2021/09/28 07:53:28;;;;;;;17.42;10.70;;;;;;;13.76;73.52;98976.84;4954013;29;20436;-78
2021/09/28 07:55:55;;;;;;;16.83;10.85;;;;;;;13.82;73.50;98976.47;4951404;29;20534;-78
2021/09/28 07:58:21;;;;;;;16.92;11.18;;;;;;;13.91;73.45;98978.50;4953471;29;20035;-79
2021/09/28 08:00:46;;;;;;;19.42;12.05;;;;;;;13.98;73.12;98982.50;4952980;29;20078;-80
2021/09/28 08:03:12;;;;;;;16.80;11.43;;;;;;;14.09;73.05;98983.09;4953996;29;20035;-77
2021/09/28 08:05:37;;;;;;;15.98;9.98;;;;;;;14.20;73.10;98985.66;4951557;29;20022;-79
2021/09/28 08:08:03;;;;;;;13.00;10.38;;;;;;;14.32;72.84;98987.88;4951000;29;20058;-75
2021/09/28 08:10:29;;;;;;;12.10;9.63;;;;;;;14.40;73.10;98984.41;4950652;29;20162;-76
2021/09/28 08:12:56;;;;;;;14.65;8.60;;;;;;;14.47;72.71;98984.78;4951206;29;20106;-79
2021/09/28 08:15:21;;;;;;;15.30;9.40;;;;;;;14.49;72.02;98988.06;4951988;29;20063;-76
2021/09/28 08:17:47;;;;;;;15.80;9.35;;;;;;;14.53;71.87;98991.84;4952355;29;20087;-78
2021/09/28 08:20:16;;;;;;;13.60;9.57;;;;;;;14.59;71.93;98981.50;4951981;29;20027;-77
2021/09/28 08:22:42;;;;;;;14.93;9.35;;;;;;;14.64;71.97;98977.81;4950027;29;20027;-78
2021/09/28 08:25:11;;;;;;;13.32;10.00;;;;;;;14.74;71.97;98991.41;4951011;29;20061;-78
2021/09/28 08:30:21;;;;;;;13.68;10.00;;;;;;;14.99;71.60;98983.66;4951346;29;20113;-76
2021/09/28 08:32:47;;;;;;;12.50;8.75;;;;;;;15.07;71.48;98985.69;4953014;29;20464;-76
2021/09/28 08:35:12;;;;;;;16.83;9.50;;;;;;;15.19;71.49;98990.63;4951460;28;20036;-76
2021/09/28 08:37:38;;;;;;;13.48;9.93;;;;;;;15.31;71.07;98992.81;4952309;29;20038;-76
2021/09/28 08:40:04;;;;;;;17.40;9.40;;;;;;;15.36;71.03;98994.66;4952939;29;20082;-76
2021/09/28 08:42:29;;;;;;;13.88;8.55;;;;;;;15.38;70.47;98995.97;4950708;29;20034;-74
2021/09/28 08:44:55;;;;;;;12.70;8.70;;;;;;;15.42;70.78;98994.22;4952061;29;20388;-75
2021/09/28 08:47:40;;;;;;;14.02;10.05;;;;;;;15.51;70.60;98999.78;4950155;29;20118;-76
2021/09/28 08:50:10;;;;;;;15.10;10.18;;;;;;;15.57;70.15;98997.72;4952337;29;20031;-78
2021/09/28 08:52:45;;;;;;;14.02;9.20;;;;;;;15.61;70.73;99001.50;4951282;29;20517;-76
2021/09/28 08:55:11;;;;;;;14.32;8.55;;;;;;;15.67;70.04;98994.69;4951251;29;20506;-75
2021/09/28 08:57:38;;;;;;;13.27;9.15;;;;;;;15.73;69.85;98989.84;4952494;29;20035;-76
2021/09/28 09:00:25;;;;;;;15.68;9.05;;;;;;;15.76;69.96;98990.00;4931848;29;20489;-75
2021/09/28 09:02:53;;;;;;;14.70;8.77;;;;;;;15.84;70.21;98993.13;4947934;29;20110;-76
2021/09/28 09:05:18;;;;;;;13.75;9.50;;;;;;;15.91;70.00;98997.09;4948085;29;20407;-76
2021/09/28 09:07:57;;;;;;;14.85;10.38;;;;;;;15.97;69.44;98996.94;4950976;29;20036;-75
2021/09/28 09:10:32;;;;;;;15.80;9.30;;;;;;;16.03;69.61;99002.03;4931737;29;20094;-76
2021/09/28 09:12:58;;;;;;;13.45;9.15;;;;;;;16.05;69.33;99002.53;4950705;29;20034;-77
2021/09/28 09:15:29;;;;;;;12.88;9.27;;;;;;;16.16;69.21;99005.00;4951132;29;20039;-77
2021/09/28 09:17:59;;;;;;;17.85;9.05;;;;;;;16.30;69.53;99002.94;4952021;29;20038;-76
2021/09/28 09:20:33;;;;;;;;;;;;;;;16.33;68.80;99004.25;4952110;29;20031;-76
2021/09/28 09:23:31;;;;;;;16.10;9.85;;;;;;;16.38;68.82;99012.41;4952338;29;20006;-75
2021/09/28 09:26:27;;;;;;;13.35;9.02;;;;;;;16.43;68.49;99008.69;4943921;29;20039;-75
2021/09/28 09:28:58;;;;;;;12.60;8.88;;;;;;;16.50;68.38;99003.50;4948932;29;20027;-75
2021/09/28 09:31:30;;;;;;;13.98;9.25;;;;;;;16.55;67.72;99010.81;4951617;29;20031;-76
2021/09/28 09:34:11;;;;;;;13.93;8.25;;;;;;;16.60;67.95;99010.66;4951554;29;20182;-75
2021/09/28 09:36:37;;;;;;;14.45;8.43;;;;;;;16.62;67.22;99002.84;4950774;29;20047;-75
2021/09/28 09:39:05;;;;;;;15.93;8.75;;;;;;;16.63;67.52;99005.28;4952155;29;20019;-75
2021/09/28 09:41:32;;;;;;;15.68;8.93;;;;;;;16.65;67.21;99008.56;4949588;29;20353;-76
2021/09/28 09:44:09;;;;;;;14.77;8.85;;;;;;;16.74;67.38;99014.09;4947487;29;20043;-76
2021/09/28 09:46:47;;;;;;;13.63;8.55;;;;;;;16.91;67.37;99013.28;4947764;29;20031;-75
2021/09/28 09:49:21;;;;;;;14.30;7.95;;;;;;;17.07;66.83;99010.06;4953068;29;20844;-77
2021/09/28 09:51:49;;;;;;;12.30;8.27;;;;;;;17.08;66.34;99014.47;4954718;29;20809;-76
2021/09/28 09:54:15;;;;;;;12.93;7.50;;;;;;;17.10;66.06;99006.66;4954833;29;20063;-77
2021/09/28 09:56:41;;;;;;;10.35;7.28;;;;;;;17.19;66.18;99007.47;4953996;29;20046;-75
2021/09/28 09:59:06;;;;;;;14.35;7.72;;;;;;;17.28;66.05;99013.00;4934323;29;20036;-75
2021/09/28 10:01:35;;;;;;;14.65;8.02;;;;;;;17.38;65.91;99009.91;4953681;29;20035;-75
2021/09/28 10:04:02;;;;;;;13.43;8.27;;;;;;;17.52;65.81;99009.72;4954532;29;20030;-75
2021/09/28 10:06:28;;;;;;;13.57;7.65;;;;;;;17.65;65.34;99015.41;4953559;29;20042;-76
2021/09/28 10:08:53;;;;;;;12.25;7.85;;;;;;;17.76;65.23;99013.88;4954204;29;20515;-75
2021/09/28 10:11:19;;;;;;;14.63;8.05;;;;;;;17.92;65.22;99016.13;4954991;29;20054;-76
2021/09/28 10:13:56;;;;;;;10.65;6.60;;;;;;;18.09;65.33;99015.28;4954884;29;20027;-76
2021/09/28 10:16:31;;;;;;;12.40;6.72;;;;;;;18.22;64.67;99018.97;4952331;29;20031;-75
2021/09/28 10:18:56;;;;;;;14.05;7.10;;;;;;;18.25;64.33;99015.53;4955179;29;20030;-76
2021/09/28 10:21:43;;;;;;;9.75;6.93;;;;;;;18.30;63.91;99018.94;4954743;29;20028;-76
2021/09/28 10:24:33;;;;;;;10.65;6.45;;;;;;;18.37;64.14;99018.41;4936860;29;20038;-76
2021/09/28 10:27:00;;;;;;;11.73;7.28;;;;;;;18.40;63.54;99023.31;4938919;29;20050;-75
2021/09/28 10:29:46;;;;;;;9.05;6.43;;;;;;;18.43;63.65;99022.63;4953835;29;20071;-76
2021/09/28 10:32:24;;;;;;;14.63;7.63;;;;;;;18.41;63.08;99022.16;4951607;29;20114;-76
2021/09/28 10:35:13;;;;;;;11.90;6.20;;;;;;;18.42;63.34;99020.19;4952829;29;20472;-75
2021/09/28 10:37:48;;;;;;;11.48;7.35;;;;;;;18.41;62.49;99019.38;4949781;29;20035;-75
2021/09/28 10:40:14;;;;;;;15.75;7.93;;;;;;;18.43;62.73;99022.63;4953282;29;20031;-75
2021/09/28 10:42:55;;;;;;;12.45;6.70;;;;;;;18.45;62.90;99019.50;4953688;29;20031;-75
2021/09/28 10:45:40;;;;;;;14.73;8.05;;;;;;;18.47;62.52;99019.19;4954303;29;20070;-75
2021/09/28 10:48:30;;;;;;;12.55;6.88;;;;;;;18.47;62.37;99022.75;4953603;29;20735;-75
2021/09/28 10:51:10;;;;;;;13.52;6.78;;;;;;;18.58;62.42;99014.84;4952919;29;20031;-75
2021/09/28 10:53:38;;;;;;;14.60;6.82;;;;;;;18.67;62.55;99020.38;4953495;29;20030;-75
2021/09/28 10:56:13;;;;;;;11.55;7.28;;;;;;;18.71;62.14;99018.56;4953296;29;20039;-75
2021/09/28 10:58:52;;;;;;;9.85;6.35;;;;;;;18.70;61.76;99016.91;4952002;28;20035;-75
2021/09/28 11:01:19;;;;;;;9.88;6.70;;;;;;;18.68;61.83;99003.34;4952400;29;20042;-75
2021/09/28 11:03:50;;;;;;;13.80;8.45;;;;;;;18.70;61.83;99008.59;4953181;29;20034;-75
2021/09/28 11:06:17;;;;;;;10.95;6.72;;;;;;;18.69;61.18;99002.19;4951994;29;20062;-75
2021/09/28 11:08:42;;;;;;;16.25;7.95;;;;;;;18.73;61.54;99016.25;4952458;29;20051;-75
2021/09/28 11:11:11;;;;;;;11.88;6.90;;;;;;;18.78;61.30;99009.66;4951071;29;20058;-76
2021/09/28 11:13:42;;;;;;;14.05;7.13;;;;;;;18.77;61.14;99010.81;4953622;29;20038;-74
2021/09/28 11:16:10;;;;;;;10.82;6.53;;;;;;;18.72;60.98;99009.88;4936762;29;20480;-74
2021/09/28 11:18:40;;;;;;;12.73;6.75;;;;;;;18.80;61.27;99008.16;4934970;29;20440;-74
2021/09/28 11:21:13;;;;;;;9.73;6.57;;;;;;;18.89;61.45;99008.91;4953773;29;20492;-74
2021/09/28 11:23:42;;;;;;;11.65;6.75;;;;;;;18.95;61.36;99003.97;4947671;29;20460;-77
2021/09/28 11:26:08;;;;;;;14.65;7.00;;;;;;;19.02;59.90;98998.72;4953750;28;20037;-76